sensor_id;sensor_type;location;lat;lon;timestamp;pressure;altitude;pressure_sealevel;temperature;humidity
20210;BME280;10264;53.178;5.840;2023-06-24T08:32:01;75384.50;;;-141.76;100.00
20210;BME280;10264;53.178;5.840;2023-06-24T08:55:49;114351.06;;;-141.76;100.00
20210;BME280;10264;53.178;5.840;2023-06-24T10:16:21;114422.47;;;-141.76;100.00
20210;BME280;10264;53.178;5.840;2023-06-24T10:34:00;114422.47;;;-141.76;100.00
20210;BME280;10264;53.178;5.840;2023-06-24T10:51:14;114422.47;;;-141.76;100.00
20210;BME280;10264;53.178;5.840;2023-06-24T11:04:24;114422.47;;;-141.76;100.00
20210;BME280;10264;53.178;5.840;2023-06-24T11:10:51;114422.47;;;-141.76;100.00
20210;BME280;10264;53.178;5.840;2023-06-24T11:13:43;114422.47;;;-141.76;100.00
20210;BME280;10264;53.178;5.840;2023-06-24T11:17:00;114422.47;;;-141.76;100.00
20210;BME280;10264;53.178;5.840;2023-06-24T11:20:16;114422.47;;;-141.76;100.00
20210;BME280;10264;53.178;5.840;2023-06-24T11:22:44;114422.47;;;-141.76;100.00
20210;BME280;10264;53.178;5.840;2023-06-24T11:25:20;114422.47;;;-141.76;100.00
20210;BME280;10264;53.178;5.840;2023-06-24T11:28:30;114422.47;;;-141.76;100.00
20210;BME280;10264;53.178;5.840;2023-06-24T11:31:10;114422.47;;;-141.76;100.00
20210;BME280;10264;53.178;5.840;2023-06-24T11:33:48;114422.47;;;-141.76;100.00
20210;BME280;10264;53.178;5.840;2023-06-24T11:36:22;114422.47;;;-141.76;100.00
20210;BME280;10264;53.178;5.840;2023-06-24T11:38:48;114422.47;;;-141.76;100.00
20210;BME280;10264;53.178;5.840;2023-06-24T11:41:15;114422.47;;;-141.76;100.00
20210;BME280;10264;53.178;5.840;2023-06-24T11:43:47;114422.47;;;-141.76;100.00
20210;BME280;10264;53.178;5.840;2023-06-24T11:46:28;114422.47;;;-141.76;100.00
20210;BME280;10264;53.178;5.840;2023-06-24T11:49:08;114422.47;;;-141.76;100.00
20210;BME280;10264;53.178;5.840;2023-06-24T11:51:49;114422.47;;;-141.76;100.00
20210;BME280;10264;53.178;5.840;2023-06-24T11:54:26;114422.47;;;-141.76;100.00
20210;BME280;10264;53.178;5.840;2023-06-24T11:56:58;114422.47;;;-141.76;100.00
20210;BME280;10264;53.178;5.840;2023-06-24T11:59:31;114422.47;;;-141.76;100.00
20210;BME280;10264;53.178;5.840;2023-06-24T12:02:03;114422.47;;;-141.76;100.00
20210;BME280;10264;53.178;5.840;2023-06-24T12:04:35;114422.47;;;-141.76;100.00
20210;BME280;10264;53.178;5.840;2023-06-24T12:07:05;114422.47;;;-141.76;100.00
20210;BME280;10264;53.178;5.840;2023-06-24T12:09:42;114422.47;;;-141.76;100.00
20210;BME280;10264;53.178;5.840;2023-06-24T12:12:21;114422.47;;;-141.76;100.00
20210;BME280;10264;53.178;5.840;2023-06-24T12:14:55;114422.47;;;-141.76;100.00
20210;BME280;10264;53.178;5.840;2023-06-24T12:17:23;114422.47;;;-141.76;100.00
20210;BME280;10264;53.178;5.840;2023-06-24T12:19:54;114422.47;;;-141.76;100.00
20210;BME280;10264;53.178;5.840;2023-06-24T12:22:28;114422.47;;;-141.76;100.00
20210;BME280;10264;53.178;5.840;2023-06-24T12:24:56;114422.47;;;-141.76;100.00
20210;BME280;10264;53.178;5.840;2023-06-24T12:30:14;114422.47;;;-141.76;100.00
20210;BME280;10264;53.178;5.840;2023-06-24T12:32:42;114422.47;;;-141.76;100.00
20210;BME280;10264;53.178;5.840;2023-06-24T12:35:17;114422.47;;;-141.76;100.00
20210;BME280;10264;53.178;5.840;2023-06-24T12:37:47;114422.47;;;-141.76;100.00
20210;BME280;10264;53.178;5.840;2023-06-24T12:40:18;114422.47;;;-141.76;100.00
20210;BME280;10264;53.178;5.840;2023-06-24T12:42:51;114422.47;;;-141.76;100.00
20210;BME280;10264;53.178;5.840;2023-06-24T12:45:22;114422.47;;;-141.76;100.00
20210;BME280;10264;53.178;5.840;2023-06-24T12:48:13;114422.47;;;-141.76;100.00
20210;BME280;10264;53.178;5.840;2023-06-24T12:50:52;114422.47;;;-141.76;100.00
20210;BME280;10264;53.178;5.840;2023-06-24T12:53:20;114422.47;;;-141.76;100.00
20210;BME280;10264;53.178;5.840;2023-06-24T12:55:53;114422.47;;;-141.76;100.00
20210;BME280;10264;53.178;5.840;2023-06-24T13:41:10;114422.47;;;-141.76;100.00
20210;BME280;10264;53.178;5.840;2023-06-24T14:08:29;114422.47;;;-141.76;100.00
20210;BME280;10264;53.178;5.840;2023-06-24T14:11:39;114422.47;;;-141.76;100.00
20210;BME280;10264;53.178;5.840;2023-06-24T14:17:48;114422.47;;;-141.76;100.00
20210;BME280;10264;53.178;5.840;2023-06-24T14:20:22;114422.47;;;-141.76;100.00
20210;BME280;10264;53.178;5.840;2023-06-24T14:26:21;114422.47;;;-141.76;100.00
20210;BME280;10264;53.178;5.840;2023-06-24T14:29:13;114422.47;;;-141.76;100.00
20210;BME280;10264;53.178;5.840;2023-06-24T14:32:07;114422.47;;;-141.76;100.00
20210;BME280;10264;53.178;5.840;2023-06-24T14:34:44;114422.47;;;-141.76;100.00
20210;BME280;10264;53.178;5.840;2023-06-24T14:37:19;114422.47;;;-141.76;100.00
20210;BME280;10264;53.178;5.840;2023-06-24T14:39:52;114422.47;;;-141.76;100.00
20210;BME280;10264;53.178;5.840;2023-06-24T14:42:53;114422.47;;;-141.76;100.00
20210;BME280;10264;53.178;5.840;2023-06-24T14:45:42;114422.47;;;-141.76;100.00
20210;BME280;10264;53.178;5.840;2023-06-24T14:48:10;114422.47;;;-141.76;100.00
20210;BME280;10264;53.178;5.840;2023-06-24T14:50:53;114422.47;;;-141.76;100.00
20210;BME280;10264;53.178;5.840;2023-06-24T14:53:36;114422.47;;;-141.76;100.00
20210;BME280;10264;53.178;5.840;2023-06-24T14:56:49;114422.47;;;-141.76;100.00
20210;BME280;10264;53.178;5.840;2023-06-24T14:59:24;114422.47;;;-141.76;100.00
20210;BME280;10264;53.178;5.840;2023-06-24T15:01:56;114422.47;;;-141.76;100.00
20210;BME280;10264;53.178;5.840;2023-06-24T15:05:02;114422.47;;;-141.76;100.00
20210;BME280;10264;53.178;5.840;2023-06-24T15:07:50;114422.47;;;-141.76;100.00
20210;BME280;10264;53.178;5.840;2023-06-24T15:10:30;114422.47;;;-141.76;100.00
20210;BME280;10264;53.178;5.840;2023-06-24T15:13:14;114422.47;;;-141.76;100.00
20210;BME280;10264;53.178;5.840;2023-06-24T15:15:51;114422.47;;;-141.76;100.00
20210;BME280;10264;53.178;5.840;2023-06-24T15:18:32;114422.47;;;-141.76;100.00
20210;BME280;10264;53.178;5.840;2023-06-24T15:21:56;114422.47;;;-141.76;100.00
20210;BME280;10264;53.178;5.840;2023-06-24T15:25:08;114422.47;;;-141.76;100.00
20210;BME280;10264;53.178;5.840;2023-06-24T15:27:46;114422.47;;;-141.76;100.00
20210;BME280;10264;53.178;5.840;2023-06-24T15:30:23;114422.47;;;-141.76;100.00
20210;BME280;10264;53.178;5.840;2023-06-24T15:33:03;114422.47;;;-141.76;100.00
20210;BME280;10264;53.178;5.840;2023-06-24T15:35:36;114422.47;;;-141.76;100.00
20210;BME280;10264;53.178;5.840;2023-06-24T15:38:24;114422.47;;;-141.76;100.00
20210;BME280;10264;53.178;5.840;2023-06-24T15:40:58;114422.47;;;-141.76;100.00
20210;BME280;10264;53.178;5.840;2023-06-24T15:43:29;114422.47;;;-141.76;100.00
20210;BME280;10264;53.178;5.840;2023-06-24T15:46:01;114422.47;;;-141.76;100.00
20210;BME280;10264;53.178;5.840;2023-06-24T15:48:45;114422.47;;;-141.76;100.00
20210;BME280;10264;53.178;5.840;2023-06-24T15:54:34;114422.47;;;-141.76;100.00
20210;BME280;10264;53.178;5.840;2023-06-24T15:57:30;114422.47;;;-141.76;100.00
20210;BME280;10264;53.178;5.840;2023-06-24T16:00:23;114422.47;;;-141.76;100.00
20210;BME280;10264;53.178;5.840;2023-06-24T16:03:54;114422.47;;;-141.76;100.00
20210;BME280;10264;53.178;5.840;2023-06-24T16:10:30;114422.47;;;-141.76;100.00
20210;BME280;10264;53.178;5.840;2023-06-24T16:23:58;114422.47;;;-141.76;100.00
20210;BME280;10264;53.178;5.840;2023-06-24T16:26:29;114422.47;;;-141.76;100.00
20210;BME280;10264;53.178;5.840;2023-06-24T17:12:13;114422.47;;;-141.76;100.00
20210;BME280;10264;53.178;5.840;2023-06-24T18:31:43;114422.47;;;-141.76;100.00
20210;BME280;10264;53.178;5.840;2023-06-24T18:34:13;114422.47;;;-141.76;100.00
20210;BME280;10264;53.178;5.840;2023-06-24T18:36:40;114271.53;;;-141.76;100.00
20210;BME280;10264;53.178;5.840;2023-06-24T18:39:07;113930.91;;;-141.76;100.00
20210;BME280;10264;53.178;5.840;2023-06-24T18:41:37;110954.50;;;-141.76;100.00
20210;BME280;10264;53.178;5.840;2023-06-24T18:44:06;94398.31;;;-141.76;100.00
20210;BME280;10264;53.178;5.840;2023-06-24T18:46:34;82463.25;;;-141.76;100.00
20210;BME280;10264;53.178;5.840;2023-06-24T18:49:02;67336.25;;;-141.76;100.00
20210;BME280;10264;53.178;5.840;2023-06-24T18:51:33;53732.72;;;-141.76;100.00
20210;BME280;10264;53.178;5.840;2023-06-24T18:53:59;42499.94;;;-141.76;100.00
20210;BME280;10264;53.178;5.840;2023-06-24T18:56:26;35460.09;;;-141.76;100.00
20210;BME280;10264;53.178;5.840;2023-06-24T18:58:53;30512.28;;;-141.76;100.00
20210;BME280;10264;53.178;5.840;2023-06-24T19:01:24;26168.13;;;-141.76;100.00
20210;BME280;10264;53.178;5.840;2023-06-24T19:03:53;22198.88;;;-141.76;100.00
20210;BME280;10264;53.178;5.840;2023-06-24T19:06:21;20166.41;;;-141.76;100.00
20210;BME280;10264;53.178;5.840;2023-06-24T19:08:49;23215.56;;;-141.76;100.00
20210;BME280;10264;53.178;5.840;2023-06-24T19:11:21;24232.56;;;-141.76;100.00
20210;BME280;10264;53.178;5.840;2023-06-24T19:13:49;19912.44;;;-141.76;100.00
20210;BME280;10264;53.178;5.840;2023-06-24T19:16:18;12555.75;;;-141.76;100.00
20210;BME280;10264;53.178;5.840;2023-06-24T21:01:33;-16708.94;;;-141.76;100.00
